createdAt,value
2022-07-25T00:00:32.073Z,0.00
2022-07-25T00:01:32.109Z,0.00
2022-07-25T00:02:32.040Z,0.00
2022-07-25T00:03:32.175Z,0.00
2022-07-25T00:04:32.107Z,0.00
2022-07-25T00:05:37.346Z,0.00
2022-07-25T00:06:32.990Z,0.00
2022-07-25T00:07:31.974Z,0.00
2022-07-25T00:08:31.962Z,0.00
2022-07-25T00:09:31.969Z,0.00
2022-07-25T00:10:31.930Z,0.00
2022-07-25T00:11:31.951Z,0.00
2022-07-25T00:12:31.941Z,0.00
2022-07-25T00:13:31.902Z,0.00
2022-07-25T00:14:31.890Z,0.00
2022-07-25T00:15:31.944Z,0.00
2022-07-25T00:16:31.990Z,0.00
2022-07-25T00:17:31.842Z,0.00
2022-07-25T00:18:31.819Z,0.00
2022-07-25T00:19:31.868Z,0.00
2022-07-25T00:20:31.925Z,0.00
2022-07-25T00:21:31.822Z,0.00
2022-07-25T00:22:31.793Z,0.00
2022-07-25T00:23:31.760Z,0.00
2022-07-25T00:24:31.751Z,0.00
2022-07-25T00:25:31.747Z,0.00
2022-07-25T00:26:34.443Z,0.00
2022-07-25T00:27:32.737Z,0.00
2022-07-25T00:28:32.372Z,0.00
2022-07-25T00:29:31.692Z,0.00
2022-07-25T00:30:31.686Z,0.00
2022-07-25T00:31:31.723Z,0.00
2022-07-25T00:32:31.640Z,0.00
2022-07-25T00:33:31.621Z,0.00
2022-07-25T00:34:31.627Z,0.00
2022-07-25T00:35:31.600Z,0.00
2022-07-25T00:36:31.581Z,0.00
2022-07-25T00:37:31.571Z,0.00
2022-07-25T00:38:31.552Z,0.00
2022-07-25T00:39:31.552Z,0.00
2022-07-25T00:40:31.531Z,0.00
2022-07-25T00:41:31.524Z,0.00
2022-07-25T00:42:31.501Z,0.00
2022-07-25T00:43:31.540Z,0.00
2022-07-25T00:44:31.482Z,0.00
2022-07-25T00:45:31.471Z,0.00
2022-07-25T00:46:31.524Z,0.00
2022-07-25T00:47:31.437Z,0.00
2022-07-25T00:48:31.482Z,0.00
2022-07-25T00:49:31.420Z,0.00
2022-07-25T00:50:31.406Z,0.00
2022-07-25T00:51:31.392Z,0.00
2022-07-25T00:52:31.361Z,0.00
2022-07-25T00:53:31.372Z,0.00
2022-07-25T00:54:31.351Z,0.00
2022-07-25T00:55:31.341Z,0.00
2022-07-25T00:56:31.313Z,0.00
2022-07-25T00:57:31.314Z,0.00
2022-07-25T00:58:31.281Z,0.00
2022-07-25T00:59:31.294Z,0.00
2022-07-25T01:00:31.259Z,0.00
2022-07-25T01:01:31.266Z,0.00
2022-07-25T01:02:31.337Z,0.00
2022-07-25T01:03:31.214Z,0.00
2022-07-25T01:04:31.228Z,0.00
2022-07-25T01:05:31.192Z,0.00
2022-07-25T01:06:31.179Z,0.00
2022-07-25T01:07:31.164Z,0.00
2022-07-25T01:08:31.154Z,0.00
2022-07-25T01:09:31.170Z,0.00
2022-07-25T01:10:31.159Z,0.00
2022-07-25T01:11:31.141Z,0.00
2022-07-25T01:12:31.094Z,0.00
2022-07-25T01:13:31.083Z,0.00
2022-07-25T01:14:31.148Z,0.00
2022-07-25T01:15:31.116Z,0.00
2022-07-25T01:16:31.041Z,0.00
2022-07-25T01:17:31.072Z,0.00
2022-07-25T01:18:31.057Z,0.00
2022-07-25T01:19:31.019Z,0.00
2022-07-25T01:20:31.010Z,0.00
2022-07-25T01:21:30.985Z,0.00
2022-07-25T01:22:30.971Z,0.00
2022-07-25T01:23:30.950Z,0.00
2022-07-25T01:24:30.953Z,0.00
2022-07-25T01:25:30.932Z,0.00
2022-07-25T01:26:30.910Z,0.00
2022-07-25T01:27:30.956Z,0.00
2022-07-25T01:28:30.902Z,0.00
2022-07-25T01:29:30.870Z,0.00
2022-07-25T01:30:30.860Z,0.00
2022-07-25T01:31:30.865Z,0.00
2022-07-25T01:32:30.827Z,0.00
2022-07-25T01:33:30.815Z,0.00
2022-07-25T01:34:30.811Z,0.00
2022-07-25T01:35:30.789Z,0.00
2022-07-25T01:36:30.771Z,0.00
2022-07-25T01:37:30.751Z,0.00
2022-07-25T01:38:30.789Z,0.00
2022-07-25T01:39:30.745Z,0.00
2022-07-25T01:40:30.726Z,0.00
2022-07-25T01:41:30.704Z,0.00
2022-07-25T01:42:30.711Z,0.00
2022-07-25T01:43:30.680Z,0.00
2022-07-25T01:44:30.680Z,0.00
2022-07-25T01:45:30.701Z,0.00
2022-07-25T01:46:30.697Z,0.00
2022-07-25T01:47:30.619Z,0.00
2022-07-25T01:48:30.678Z,0.00
2022-07-25T01:49:30.620Z,0.00
2022-07-25T01:50:30.607Z,0.00
2022-07-25T01:51:30.561Z,0.00
2022-07-25T01:52:30.562Z,0.00
2022-07-25T01:53:30.541Z,0.00
2022-07-25T01:54:30.539Z,0.00
2022-07-25T01:55:30.542Z,0.00
2022-07-25T01:56:30.530Z,0.00
2022-07-25T01:57:30.896Z,0.00
2022-07-25T01:58:30.481Z,0.00
2022-07-25T01:59:30.470Z,0.00
2022-07-25T02:00:30.449Z,0.00
2022-07-25T02:01:30.491Z,0.00
2022-07-25T02:02:30.420Z,0.00
2022-07-25T02:03:30.442Z,0.00
2022-07-25T02:04:30.455Z,0.00
2022-07-25T02:05:30.382Z,0.00
2022-07-25T02:06:30.370Z,0.00
2022-07-25T02:07:30.350Z,0.00
2022-07-25T02:08:30.340Z,0.00
2022-07-25T02:09:30.340Z,0.00
2022-07-25T02:10:30.327Z,0.00
2022-07-25T02:11:30.327Z,0.00
2022-07-25T02:12:30.296Z,0.00
2022-07-25T02:13:30.279Z,0.00
2022-07-25T02:14:30.270Z,0.00
2022-07-25T02:15:30.249Z,0.00
2022-07-25T02:16:30.304Z,0.00
2022-07-25T02:17:30.306Z,0.00
2022-07-25T02:18:30.216Z,0.00
2022-07-25T02:19:30.201Z,0.00
2022-07-25T02:20:30.181Z,0.00
2022-07-25T02:21:30.169Z,0.00
2022-07-25T02:22:30.160Z,0.00
2022-07-25T02:23:30.142Z,0.00
2022-07-25T02:24:30.141Z,0.00
2022-07-25T02:25:30.111Z,0.00
2022-07-25T02:26:30.108Z,0.00
2022-07-25T02:27:30.120Z,0.00
2022-07-25T02:28:30.078Z,0.00
2022-07-25T02:29:30.070Z,0.00
2022-07-25T02:30:30.099Z,0.00
2022-07-25T02:31:30.031Z,0.00
2022-07-25T02:32:30.035Z,0.00
2022-07-25T02:33:30.023Z,0.00
2022-07-25T02:34:29.989Z,0.00
2022-07-25T02:35:29.979Z,0.00
2022-07-25T02:36:29.978Z,0.00
2022-07-25T02:37:29.949Z,0.00
2022-07-25T02:38:29.965Z,0.00
2022-07-25T02:39:29.946Z,0.00
2022-07-25T02:40:29.918Z,0.00
2022-07-25T02:41:29.905Z,0.00
2022-07-25T02:42:29.903Z,0.00
2022-07-25T02:43:29.890Z,0.00
2022-07-25T02:44:29.866Z,0.00
2022-07-25T02:45:29.849Z,0.00
2022-07-25T02:46:29.919Z,4.00
2022-07-25T02:47:29.820Z,4.00
2022-07-25T02:48:29.881Z,0.00
2022-07-25T02:49:29.805Z,0.00
2022-07-25T02:50:29.787Z,0.00
2022-07-25T02:51:29.776Z,4.00
2022-07-25T02:52:29.758Z,4.00
2022-07-25T02:53:54.878Z,0.00
2022-07-25T02:54:30.731Z,4.00
2022-07-25T02:55:29.710Z,4.00
2022-07-25T02:56:31.971Z,4.00
2022-07-25T02:57:29.692Z,4.00
2022-07-25T02:58:29.712Z,4.00
2022-07-25T02:59:32.196Z,4.00
2022-07-25T03:00:29.680Z,8.00
2022-07-25T03:01:29.682Z,8.00
2022-07-25T03:02:29.631Z,8.00
2022-07-25T03:03:29.649Z,12.00
2022-07-25T03:04:29.684Z,12.00
2022-07-25T03:05:29.598Z,12.00
2022-07-25T03:06:29.572Z,16.00
2022-07-25T03:07:29.576Z,20.00
2022-07-25T03:08:29.564Z,20.00
2022-07-25T03:09:29.533Z,24.00
2022-07-25T03:10:29.520Z,24.00
2022-07-25T03:11:29.521Z,28.00
2022-07-25T03:12:29.497Z,28.00
2022-07-25T03:13:29.489Z,36.00
2022-07-25T03:14:29.469Z,36.00
2022-07-25T03:15:29.520Z,40.00
2022-07-25T03:16:29.514Z,44.00
2022-07-25T03:17:29.420Z,44.00
2022-07-25T03:18:29.431Z,48.00
2022-07-25T03:19:29.388Z,52.00
2022-07-25T03:20:29.378Z,56.00
2022-07-25T03:21:29.378Z,64.00
2022-07-25T03:22:29.372Z,64.00
2022-07-25T03:23:29.347Z,72.00
2022-07-25T03:24:29.335Z,80.00
2022-07-25T03:25:29.322Z,88.00
2022-07-25T03:26:29.311Z,96.00
2022-07-25T03:27:29.289Z,104.00
2022-07-25T03:28:29.318Z,112.00
2022-07-25T03:29:29.299Z,124.00
2022-07-25T03:30:29.298Z,136.00
2022-07-25T03:31:29.289Z,144.00
2022-07-25T03:32:29.227Z,152.00
2022-07-25T03:33:29.237Z,164.00
2022-07-25T03:34:29.211Z,180.00
2022-07-25T03:35:29.180Z,188.00
2022-07-25T03:36:29.189Z,208.00
2022-07-25T03:37:29.161Z,228.00
2022-07-25T03:38:29.158Z,256.00
2022-07-25T03:39:29.131Z,272.00
2022-07-25T03:40:29.184Z,288.00
2022-07-25T03:41:29.125Z,296.00
2022-07-25T03:42:32.256Z,312.00
2022-07-25T03:43:30.098Z,328.00
2022-07-25T03:44:29.079Z,352.00
2022-07-25T03:45:29.138Z,376.00
2022-07-25T03:46:29.093Z,404.00
2022-07-25T03:47:29.018Z,424.00
2022-07-25T03:48:29.064Z,444.00
2022-07-25T03:49:29.004Z,468.00
2022-07-25T03:50:29.034Z,520.00
2022-07-25T03:51:28.970Z,564.00
2022-07-25T03:52:28.997Z,588.00
2022-07-25T03:53:28.959Z,596.00
2022-07-25T03:54:28.958Z,616.00
2022-07-25T03:55:28.921Z,644.00
2022-07-25T03:56:28.924Z,692.00
2022-07-25T03:57:28.887Z,740.00
2022-07-25T03:58:28.896Z,788.00
2022-07-25T03:59:28.866Z,832.00
2022-07-25T04:00:28.857Z,840.00
2022-07-25T04:01:28.901Z,828.00
2022-07-25T04:02:28.895Z,816.00
2022-07-25T04:03:28.821Z,816.00
2022-07-25T04:04:28.807Z,804.00
2022-07-25T04:05:28.785Z,812.00
2022-07-25T04:06:28.776Z,820.00
2022-07-25T04:07:28.769Z,836.00
2022-07-25T04:08:28.768Z,876.00
2022-07-25T04:09:31.036Z,928.00
2022-07-25T04:10:29.729Z,988.00
2022-07-25T04:11:28.727Z,1044.00
2022-07-25T04:12:28.701Z,1088.00
2022-07-25T04:13:28.697Z,1104.00
2022-07-25T04:14:28.668Z,1112.00
2022-07-25T04:15:28.647Z,1136.00
2022-07-25T04:16:28.647Z,1164.00
2022-07-25T04:17:28.626Z,1220.00
2022-07-25T04:18:28.991Z,1268.00
2022-07-25T04:19:29.002Z,1288.00
2022-07-25T04:20:28.609Z,1300.00
2022-07-25T04:21:28.566Z,1308.00
2022-07-25T04:22:28.578Z,1368.00
2022-07-25T04:23:28.557Z,1496.00
2022-07-25T04:24:28.538Z,1636.00
2022-07-25T04:25:28.516Z,1732.00
2022-07-25T04:26:28.506Z,1792.00
2022-07-25T04:27:28.487Z,1840.00
2022-07-25T04:28:28.516Z,1908.00
2022-07-25T04:29:28.466Z,2068.00
2022-07-25T04:30:28.476Z,2780.00
2022-07-25T04:31:28.465Z,3452.00
2022-07-25T04:32:28.447Z,5192.00
2022-07-25T04:33:28.447Z,9076.00
2022-07-25T04:34:28.396Z,12128.00
2022-07-25T04:35:28.395Z,13536.00
2022-07-25T04:36:28.375Z,12032.00
2022-07-25T04:37:28.375Z,10852.00
2022-07-25T04:38:28.361Z,15520.00
2022-07-25T04:39:28.352Z,13216.00
2022-07-25T04:40:28.335Z,9220.00
2022-07-25T04:41:28.298Z,8420.00
2022-07-25T04:42:28.296Z,10768.00
2022-07-25T04:43:28.286Z,15328.00
2022-07-25T04:44:28.266Z,9700.00
2022-07-25T04:45:28.273Z,18048.00
2022-07-25T04:46:28.237Z,10584.00
2022-07-25T04:47:28.215Z,6156.00
2022-07-25T04:48:28.290Z,9472.00
2022-07-25T04:49:28.196Z,14400.00
2022-07-25T04:50:28.186Z,18432.00
2022-07-25T04:51:28.177Z,25120.00
2022-07-25T04:52:28.157Z,17120.00
2022-07-25T04:53:28.159Z,14816.00
2022-07-25T04:54:28.126Z,19104.00
2022-07-25T04:55:28.147Z,15968.00
2022-07-25T04:56:28.106Z,12544.00
2022-07-25T04:57:28.096Z,8480.00
2022-07-25T04:58:28.088Z,11928.00
2022-07-25T04:59:28.069Z,22784.00
2022-07-25T05:00:28.047Z,29344.00
2022-07-25T05:01:28.100Z,26624.00
2022-07-25T05:02:28.092Z,15040.00
2022-07-25T05:03:28.027Z,11332.00
2022-07-25T05:04:27.997Z,9892.00
2022-07-25T05:05:27.998Z,19968.00
2022-07-25T05:06:27.988Z,33664.00
2022-07-25T05:07:27.958Z,37312.00
2022-07-25T05:08:27.945Z,28832.00
2022-07-25T05:09:27.947Z,18144.00
2022-07-25T05:10:27.925Z,22496.00
2022-07-25T05:11:27.909Z,22688.00
2022-07-25T05:12:27.896Z,18976.00
2022-07-25T05:13:27.886Z,25952.00
2022-07-25T05:14:27.880Z,26400.00
2022-07-25T05:15:27.858Z,23200.00
2022-07-25T05:16:27.876Z,34272.00
2022-07-25T05:17:27.858Z,44608.00
2022-07-25T05:18:27.818Z,38304.00
2022-07-25T05:19:27.810Z,23456.00
2022-07-25T05:20:27.789Z,13408.00
2022-07-25T05:21:27.780Z,17984.00
2022-07-25T05:22:28.517Z,36608.00
2022-07-25T05:23:27.771Z,47072.00
2022-07-25T05:24:27.789Z,46528.00
2022-07-25T05:25:27.720Z,36832.00
2022-07-25T05:26:27.724Z,24192.00
2022-07-25T05:27:27.707Z,16800.00
2022-07-25T05:28:27.691Z,16928.00
2022-07-25T05:29:27.709Z,31424.00
2022-07-25T05:30:27.695Z,36256.00
2022-07-25T05:31:27.735Z,24800.00
2022-07-25T05:32:27.632Z,17856.00
2022-07-25T05:33:27.630Z,10784.00
2022-07-25T05:34:27.632Z,9724.00
2022-07-25T05:35:27.603Z,9272.00
2022-07-25T05:36:27.585Z,8988.00
2022-07-25T05:37:27.572Z,8896.00
2022-07-25T05:38:27.571Z,8784.00
2022-07-25T05:39:27.553Z,8416.00
2022-07-25T05:40:27.531Z,8372.00
2022-07-25T05:41:27.523Z,8640.00
2022-07-25T05:42:27.503Z,8568.00
2022-07-25T05:43:27.495Z,8548.00
2022-07-25T05:44:27.486Z,8800.00
2022-07-25T05:45:27.478Z,9028.00
2022-07-25T05:46:27.556Z,8984.00
2022-07-25T05:47:27.444Z,8680.00
2022-07-25T05:48:27.454Z,8720.00
2022-07-25T05:49:27.423Z,8988.00
2022-07-25T05:50:27.406Z,9104.00
2022-07-25T05:51:27.785Z,9304.00
2022-07-25T05:52:27.451Z,9608.00
2022-07-25T05:53:27.376Z,9644.00
2022-07-25T05:54:27.549Z,9816.00
2022-07-25T05:55:27.354Z,10044.00
2022-07-25T05:56:27.347Z,10136.00
2022-07-25T05:57:27.358Z,10456.00
2022-07-25T05:58:29.914Z,10736.00
2022-07-25T05:59:27.297Z,11308.00
2022-07-25T06:00:27.285Z,11016.00
2022-07-25T06:01:27.351Z,10868.00
2022-07-25T06:02:27.358Z,11460.00
2022-07-25T06:03:27.341Z,11700.00
2022-07-25T06:04:27.480Z,11428.00
2022-07-25T06:05:27.214Z,11412.00
2022-07-25T06:06:27.226Z,11632.00
2022-07-25T06:07:27.212Z,12308.00
2022-07-25T06:08:27.179Z,12376.00
2022-07-25T06:09:27.176Z,13384.00
2022-07-25T06:10:27.257Z,13720.00
2022-07-25T06:11:27.143Z,14368.00
2022-07-25T06:12:27.130Z,20256.00
2022-07-25T06:13:27.127Z,26944.00
2022-07-25T06:14:27.111Z,23904.00
2022-07-25T06:15:27.581Z,21824.00
2022-07-25T06:16:27.163Z,16800.00
2022-07-25T06:17:32.269Z,14688.00
2022-07-25T06:18:28.049Z,15136.00
2022-07-25T06:19:27.048Z,19712.00
2022-07-25T06:20:27.078Z,18848.00
2022-07-25T06:21:27.018Z,17888.00
2022-07-25T06:22:27.000Z,17120.00
2022-07-25T06:23:27.598Z,22304.00
2022-07-25T06:24:26.992Z,24192.00
2022-07-25T06:25:26.971Z,18400.00
2022-07-25T06:26:26.949Z,17664.00
2022-07-25T06:27:29.361Z,19040.00
2022-07-25T06:28:26.932Z,19808.00
2022-07-25T06:29:26.933Z,27776.00
2022-07-25T06:30:26.910Z,45408.00
2022-07-25T06:31:26.931Z,49696.00
2022-07-25T06:32:26.885Z,38144.00
2022-07-25T06:33:26.882Z,28320.00
2022-07-25T06:34:28.777Z,25792.00
2022-07-25T06:35:26.846Z,34304.00
2022-07-25T06:36:32.862Z,60128.00
2022-07-25T06:37:27.817Z,71904.00
2022-07-25T06:38:26.813Z,56704.00
2022-07-25T06:39:26.817Z,35712.00
2022-07-25T06:40:26.818Z,25472.00
2022-07-25T06:41:26.776Z,33024.00
2022-07-25T06:42:26.766Z,61120.00
2022-07-25T06:43:26.763Z,72032.00
2022-07-25T06:44:26.747Z,59616.00
2022-07-25T06:45:26.795Z,38880.00
2022-07-25T06:46:26.764Z,24384.00
2022-07-25T06:47:26.718Z,30048.00
2022-07-25T06:48:26.808Z,54880.00
2022-07-25T06:49:26.680Z,70880.00
2022-07-25T06:50:26.672Z,59040.00
2022-07-25T06:51:26.657Z,33728.00
2022-07-25T06:52:26.637Z,20768.00
2022-07-25T06:53:26.641Z,32608.00
2022-07-25T06:54:26.622Z,59392.00
2022-07-25T06:55:26.601Z,67488.00
2022-07-25T06:56:26.628Z,50336.00
2022-07-25T06:57:26.578Z,27424.00
2022-07-25T06:58:26.586Z,21216.00
2022-07-25T06:59:26.550Z,36800.00
2022-07-25T07:00:26.609Z,60736.00
2022-07-25T07:01:26.644Z,63936.00
2022-07-25T07:02:26.540Z,40224.00
2022-07-25T07:03:26.580Z,15584.00
2022-07-25T07:04:26.491Z,9476.00
2022-07-25T07:05:26.478Z,8120.00
2022-07-25T07:06:26.475Z,7432.00
2022-07-25T07:07:26.453Z,7252.00
2022-07-25T07:08:26.459Z,6820.00
2022-07-25T07:09:26.430Z,6316.00
2022-07-25T07:10:26.423Z,5952.00
2022-07-25T07:11:26.404Z,5752.00
2022-07-25T07:12:26.398Z,5652.00
2022-07-25T07:13:26.391Z,5600.00
2022-07-25T07:14:26.370Z,5560.00
2022-07-25T07:15:26.352Z,5540.00
2022-07-25T07:16:26.412Z,5520.00
2022-07-25T07:17:26.332Z,5500.00
2022-07-25T07:18:26.333Z,5492.00
2022-07-25T07:19:26.323Z,5488.00
2022-07-25T07:20:26.304Z,5496.00
2022-07-25T07:21:26.326Z,5456.00
2022-07-25T07:22:26.295Z,5432.00
2022-07-25T07:23:26.273Z,5408.00
2022-07-25T07:24:26.243Z,5384.00
2022-07-25T07:25:28.330Z,5376.00
2022-07-25T07:26:26.235Z,5360.00
2022-07-25T07:27:26.808Z,5344.00
2022-07-25T07:28:26.217Z,5320.00
2022-07-25T07:29:26.214Z,5312.00
2022-07-25T07:30:52.214Z,5300.00
2022-07-25T07:31:27.231Z,5292.00
2022-07-25T07:32:26.158Z,5280.00
2022-07-25T07:33:26.193Z,5292.00
2022-07-25T07:34:26.164Z,5280.00
2022-07-25T07:35:27.464Z,5264.00
2022-07-25T07:36:26.116Z,5268.00
2022-07-25T07:37:26.103Z,5240.00
2022-07-25T07:38:26.108Z,5208.00
2022-07-25T07:39:26.100Z,5220.00
2022-07-25T07:40:26.059Z,5188.00
2022-07-25T07:41:26.047Z,5180.00
2022-07-25T07:42:26.046Z,5160.00
2022-07-25T07:43:30.097Z,5144.00
2022-07-25T07:44:26.024Z,5104.00
2022-07-25T07:45:26.007Z,5092.00
2022-07-25T07:46:26.037Z,5072.00
2022-07-25T07:47:25.967Z,5104.00
2022-07-25T07:48:25.988Z,5056.00
2022-07-25T07:49:26.030Z,5020.00
2022-07-25T07:50:25.975Z,5000.00
2022-07-25T07:51:25.934Z,5008.00
2022-07-25T07:52:25.916Z,4976.00
2022-07-25T07:53:25.917Z,4940.00
2022-07-25T07:54:25.901Z,4892.00
2022-07-25T07:55:25.880Z,4888.00
2022-07-25T07:56:25.879Z,4860.00
2022-07-25T07:57:25.858Z,4844.00
2022-07-25T07:58:25.881Z,4844.00
2022-07-25T07:59:25.840Z,4816.00
2022-07-25T08:00:25.829Z,4796.00
2022-07-25T08:01:25.871Z,4788.00
2022-07-25T08:02:25.880Z,4764.00
2022-07-25T08:03:25.876Z,4756.00
2022-07-25T08:04:25.773Z,4736.00
2022-07-25T08:05:25.772Z,4728.00
2022-07-25T08:06:25.761Z,4704.00
2022-07-25T08:07:25.740Z,4728.00
2022-07-25T08:08:30.742Z,4720.00
2022-07-25T08:09:26.745Z,4668.00
2022-07-25T08:10:25.715Z,4656.00
2022-07-25T08:11:25.692Z,4640.00
2022-07-25T08:12:25.682Z,4636.00
2022-07-25T08:13:25.698Z,4620.00
2022-07-25T08:14:25.663Z,4592.00
2022-07-25T08:15:25.642Z,4576.00
2022-07-25T08:16:25.697Z,4560.00
2022-07-25T08:17:28.623Z,4548.00
2022-07-25T08:18:25.643Z,4516.00
2022-07-25T08:19:25.593Z,4504.00
2022-07-25T08:20:38.041Z,4488.00
2022-07-25T08:21:26.575Z,4460.00
2022-07-25T08:22:25.567Z,4420.00
2022-07-25T08:23:25.566Z,4412.00
2022-07-25T08:24:25.544Z,4376.00
2022-07-25T08:25:25.534Z,4348.00
2022-07-25T08:26:25.525Z,4312.00
2022-07-25T08:27:25.505Z,4300.00
2022-07-25T08:28:25.514Z,4292.00
2022-07-25T08:29:28.229Z,4248.00
2022-07-25T08:30:25.474Z,4236.00
2022-07-25T08:31:25.495Z,4208.00
2022-07-25T08:32:25.436Z,4184.00
2022-07-25T08:33:25.466Z,4172.00
2022-07-25T08:34:25.432Z,4184.00
2022-07-25T08:35:25.421Z,4148.00
2022-07-25T08:36:25.409Z,4128.00
2022-07-25T08:37:25.376Z,4136.00
2022-07-25T08:38:25.388Z,4120.00
2022-07-25T08:39:25.367Z,4100.00
2022-07-25T08:40:25.357Z,4104.00
2022-07-25T08:41:25.366Z,4068.00
2022-07-25T08:42:25.376Z,4080.00
2022-07-25T08:43:25.323Z,4048.00
2022-07-25T08:44:25.303Z,4060.00
2022-07-25T08:45:25.278Z,4024.00
2022-07-25T08:46:25.360Z,3988.00
2022-07-25T08:47:25.261Z,3984.00
2022-07-25T08:48:25.313Z,3968.00
2022-07-25T08:49:25.240Z,3972.00
2022-07-25T08:50:25.249Z,3928.00
2022-07-25T08:51:25.210Z,3916.00
2022-07-25T08:52:25.210Z,3900.00
2022-07-25T08:53:33.895Z,3900.00
2022-07-25T08:54:26.202Z,3868.00
2022-07-25T08:55:25.177Z,3868.00
2022-07-25T08:56:25.170Z,3844.00
2022-07-25T08:57:25.141Z,3844.00
2022-07-25T08:58:25.155Z,3828.00
2022-07-25T08:59:25.120Z,3796.00
2022-07-25T09:00:25.118Z,3784.00
2022-07-25T09:01:25.245Z,3800.00
2022-07-25T09:02:25.269Z,3780.00
2022-07-25T09:03:25.136Z,3744.00
2022-07-25T09:04:25.062Z,3752.00
2022-07-25T09:05:25.057Z,3712.00
2022-07-25T09:06:25.056Z,3712.00
2022-07-25T09:07:25.032Z,3716.00
2022-07-25T09:08:25.034Z,3688.00
2022-07-25T09:09:25.015Z,3676.00
2022-07-25T09:10:25.014Z,3656.00
2022-07-25T09:11:24.975Z,3628.00
2022-07-25T09:12:26.169Z,3624.00
2022-07-25T09:13:24.965Z,3600.00
2022-07-25T09:14:24.945Z,3592.00
2022-07-25T09:15:24.990Z,3584.00
2022-07-25T09:16:24.959Z,3580.00
2022-07-25T09:17:24.988Z,3568.00
2022-07-25T09:18:24.916Z,3548.00
2022-07-25T09:19:24.897Z,3552.00
2022-07-25T09:20:24.877Z,3528.00
2022-07-25T09:21:24.857Z,3516.00
2022-07-25T09:22:24.856Z,3552.00
2022-07-25T09:23:24.872Z,3536.00
2022-07-25T09:24:24.864Z,3528.00
2022-07-25T09:25:24.826Z,3524.00
2022-07-25T09:26:24.815Z,3528.00
2022-07-25T09:27:24.787Z,3512.00
2022-07-25T09:28:24.806Z,3492.00
2022-07-25T09:29:24.798Z,3492.00
2022-07-25T09:30:24.768Z,3432.00
2022-07-25T09:31:24.805Z,3384.00
2022-07-25T09:32:24.738Z,3404.00
2022-07-25T09:33:24.732Z,3416.00
2022-07-25T09:34:25.685Z,3416.00
2022-07-25T09:35:24.726Z,3404.00
2022-07-25T09:36:24.696Z,3412.00
2022-07-25T09:37:24.668Z,3392.00
2022-07-25T09:38:24.679Z,3416.00
2022-07-25T09:39:24.668Z,3392.00
2022-07-25T09:40:24.651Z,3380.00
2022-07-25T09:41:24.629Z,3384.00
2022-07-25T09:42:24.618Z,3392.00
2022-07-25T09:43:24.618Z,3360.00
2022-07-25T09:44:24.600Z,3376.00
2022-07-25T09:45:29.586Z,3384.00
2022-07-25T09:46:25.626Z,3380.00
2022-07-25T09:47:24.562Z,3380.00
2022-07-25T09:48:24.626Z,3392.00
2022-07-25T09:49:24.553Z,3424.00
2022-07-25T09:50:24.568Z,3372.00
2022-07-25T09:51:24.501Z,3368.00
2022-07-25T09:52:24.504Z,3332.00
2022-07-25T09:53:24.501Z,3320.00
2022-07-25T09:54:24.483Z,3304.00
2022-07-25T09:55:24.490Z,3264.00
2022-07-25T09:56:24.501Z,3276.00
2022-07-25T09:57:24.463Z,3240.00
2022-07-25T09:58:24.443Z,3204.00
2022-07-25T09:59:24.421Z,3200.00
2022-07-25T10:00:24.410Z,3148.00
2022-07-25T10:01:24.469Z,3052.00
2022-07-25T10:02:24.416Z,3068.00
2022-07-25T10:03:24.394Z,3080.00
2022-07-25T10:04:24.364Z,3104.00
2022-07-25T10:05:24.354Z,3092.00
2022-07-25T10:06:24.337Z,3088.00
2022-07-25T10:07:29.449Z,3160.00
2022-07-25T10:08:25.345Z,3136.00
2022-07-25T10:09:24.323Z,3116.00
2022-07-25T10:10:24.329Z,3148.00
2022-07-25T10:11:24.284Z,3116.00
2022-07-25T10:12:24.271Z,3136.00
2022-07-25T10:13:24.274Z,3108.00
2022-07-25T10:14:24.256Z,3036.00
2022-07-25T10:15:24.246Z,3004.00
2022-07-25T10:16:24.252Z,2968.00
2022-07-25T10:17:24.267Z,2948.00
2022-07-25T10:18:24.207Z,2884.00
2022-07-25T10:19:24.199Z,2940.00
2022-07-25T10:20:24.172Z,2952.00
2022-07-25T10:21:27.433Z,2956.00
2022-07-25T10:22:46.566Z,2924.00
2022-07-25T10:23:25.155Z,2956.00
2022-07-25T10:24:24.139Z,2968.00
2022-07-25T10:25:24.142Z,2960.00
2022-07-25T10:26:24.126Z,2900.00
2022-07-25T10:27:24.098Z,2872.00
2022-07-25T10:28:24.078Z,2840.00
2022-07-25T10:29:24.090Z,2840.00
2022-07-25T10:30:24.062Z,2824.00
2022-07-25T10:31:24.091Z,2796.00
2022-07-25T10:32:24.047Z,2796.00
2022-07-25T10:33:24.051Z,2800.00
2022-07-25T10:34:24.051Z,2804.00
2022-07-25T10:35:23.999Z,2796.00
2022-07-25T10:36:23.984Z,2852.00
2022-07-25T10:37:23.989Z,2792.00
2022-07-25T10:38:23.963Z,2748.00
2022-07-25T10:39:24.037Z,2732.00
2022-07-25T10:40:23.947Z,2744.00
2022-07-25T10:41:23.939Z,2756.00
2022-07-25T10:42:23.931Z,2748.00
2022-07-25T10:43:23.920Z,2732.00
2022-07-25T10:44:23.913Z,2724.00
2022-07-25T10:45:23.882Z,2696.00
2022-07-25T10:46:23.960Z,2712.00
2022-07-25T10:47:23.865Z,2692.00
2022-07-25T10:48:23.862Z,2668.00
2022-07-25T10:49:31.930Z,2672.00
2022-07-25T10:50:53.543Z,2688.00
2022-07-25T10:51:24.815Z,2664.00
2022-07-25T10:52:23.793Z,2664.00
2022-07-25T10:53:23.804Z,2672.00
2022-07-25T10:54:23.793Z,2660.00
2022-07-25T10:55:23.770Z,2660.00
2022-07-25T10:56:23.753Z,2648.00
2022-07-25T10:57:27.155Z,2644.00
2022-07-25T10:58:24.724Z,2624.00
2022-07-25T10:59:23.742Z,2628.00
2022-07-25T11:00:23.729Z,2612.00
2022-07-25T11:01:23.755Z,2592.00
2022-07-25T11:02:23.725Z,2600.00
2022-07-25T11:03:23.675Z,2584.00
2022-07-25T11:04:23.667Z,2596.00
2022-07-25T11:05:23.648Z,2592.00
2022-07-25T11:06:23.635Z,2576.00
2022-07-25T11:07:23.632Z,2568.00
2022-07-25T11:08:23.606Z,2564.00
2022-07-25T11:09:27.218Z,2596.00
2022-07-25T11:10:23.618Z,2556.00
2022-07-25T11:11:23.577Z,2508.00
2022-07-25T11:12:23.555Z,2564.00
2022-07-25T11:13:23.549Z,2556.00
2022-07-25T11:14:23.551Z,2556.00
2022-07-25T11:15:23.537Z,2548.00
2022-07-25T11:16:23.568Z,2544.00
2022-07-25T11:17:23.500Z,2520.00
2022-07-25T11:18:23.488Z,2520.00
2022-07-25T11:19:23.499Z,2520.00
2022-07-25T11:20:23.463Z,2528.00
2022-07-25T11:21:23.460Z,2512.00
2022-07-25T11:22:23.450Z,2504.00
2022-07-25T11:23:23.470Z,2484.00
2022-07-25T11:24:23.442Z,2476.00
2022-07-25T11:25:23.418Z,2476.00
2022-07-25T11:26:23.391Z,2484.00
2022-07-25T11:27:23.388Z,2472.00
2022-07-25T11:28:23.372Z,2468.00
2022-07-25T11:29:23.372Z,2464.00
2022-07-25T11:30:23.342Z,2480.00
2022-07-25T11:31:23.400Z,2464.00
2022-07-25T11:32:23.323Z,2472.00
2022-07-25T11:33:23.323Z,2448.00
2022-07-25T11:34:23.323Z,2460.00
2022-07-25T11:35:23.301Z,2452.00
2022-07-25T11:36:23.273Z,2484.00
2022-07-25T11:37:23.273Z,2472.00
2022-07-25T11:38:23.255Z,2472.00
2022-07-25T11:39:23.265Z,2464.00
2022-07-25T11:40:23.252Z,2448.00
2022-07-25T11:41:23.245Z,2472.00
2022-07-25T11:42:23.242Z,2456.00
2022-07-25T11:43:23.206Z,2452.00
2022-07-25T11:44:23.227Z,2460.00
2022-07-25T11:45:23.188Z,2432.00
2022-07-25T11:46:23.221Z,2424.00
2022-07-25T11:47:23.171Z,2444.00
2022-07-25T11:48:23.135Z,2432.00
2022-07-25T11:49:23.170Z,2448.00
2022-07-25T11:50:23.115Z,2444.00
2022-07-25T11:51:23.117Z,2440.00
2022-07-25T11:52:23.108Z,2432.00
2022-07-25T11:53:23.088Z,2412.00
2022-07-25T11:54:23.087Z,2408.00
2022-07-25T11:55:23.056Z,2404.00
2022-07-25T11:56:41.877Z,2404.00
2022-07-25T11:57:24.043Z,2404.00
2022-07-25T11:58:23.028Z,2396.00
2022-07-25T11:59:23.039Z,2384.00
2022-07-25T12:00:23.015Z,2392.00
2022-07-25T12:01:23.008Z,2388.00
2022-07-25T12:02:23.031Z,2396.00
2022-07-25T12:03:23.119Z,2380.00
2022-07-25T12:04:22.957Z,2392.00
2022-07-25T12:05:22.948Z,2384.00
2022-07-25T12:06:22.938Z,2388.00
2022-07-25T12:07:22.922Z,2384.00
2022-07-25T12:08:22.923Z,2380.00
2022-07-25T12:09:22.916Z,2364.00
2022-07-25T12:10:22.882Z,2360.00
2022-07-25T12:11:22.872Z,2360.00
2022-07-25T12:12:22.871Z,2368.00
2022-07-25T12:13:22.851Z,2336.00
2022-07-25T12:14:22.859Z,2364.00
2022-07-25T12:15:22.825Z,2360.00
2022-07-25T12:16:22.879Z,2372.00
2022-07-25T12:17:22.819Z,2348.00
2022-07-25T12:18:22.818Z,2368.00
2022-07-25T12:19:22.791Z,2372.00
2022-07-25T12:20:22.761Z,2368.00
2022-07-25T12:21:22.753Z,2376.00